createdAt,value
2022-12-17T00:00:47.989Z,-15.24
2022-12-17T00:01:44.816Z,-15.91
2022-12-17T00:02:45.103Z,-16.45
2022-12-17T00:03:45.062Z,-16.17
2022-12-17T00:04:44.863Z,-16.11
2022-12-17T00:05:44.832Z,-16
2022-12-17T00:06:44.823Z,-15.51
2022-12-17T00:07:44.861Z,-16.24
2022-12-17T00:08:44.824Z,-16.21
2022-12-17T00:09:50.067Z,-17.27
2022-12-17T00:10:44.850Z,-17.99
2022-12-17T00:11:47.952Z,-18.67
2022-12-17T00:12:44.862Z,-19.48
2022-12-17T00:13:44.841Z,-21.61
2022-12-17T00:14:44.836Z,-23.37
2022-12-17T00:15:44.900Z,-24.08
2022-12-17T00:16:44.949Z,-26.44
2022-12-17T00:17:44.862Z,-27.73
2022-12-17T00:18:44.846Z,-28.76
2022-12-17T00:19:44.846Z,-30.55
2022-12-17T00:20:44.878Z,-30.94
2022-12-17T00:21:44.849Z,-33.57
2022-12-17T00:22:47.694Z,-35.09
2022-12-17T00:23:44.858Z,-37.72
2022-12-17T00:24:44.849Z,-37.6
2022-12-17T00:25:44.854Z,-40.83
2022-12-17T00:26:44.859Z,-43.06
2022-12-17T00:27:44.878Z,-44.85
2022-12-17T00:28:44.855Z,-47.26
2022-12-17T00:29:44.858Z,-47.69
2022-12-17T00:30:44.857Z,-50.35
2022-12-17T00:31:44.934Z,-52.96
2022-12-17T00:32:44.901Z,-55.52
2022-12-17T00:33:44.863Z,-57.99
2022-12-17T00:34:44.868Z,-58.72
2022-12-17T00:35:44.959Z,-60.22
2022-12-17T00:36:44.895Z,-62.37
2022-12-17T00:37:44.929Z,-63.62
2022-12-17T00:38:44.877Z,-64.96
2022-12-17T00:39:44.877Z,-66.53
2022-12-17T00:40:44.883Z,-67.06
2022-12-17T00:41:44.883Z,-69.11
2022-12-17T00:42:44.928Z,-69.93
2022-12-17T00:43:44.878Z,-72.73
2022-12-17T00:44:44.890Z,-74.15
2022-12-17T00:45:44.885Z,-75.94
2022-12-17T00:46:44.896Z,-77.77
2022-12-17T00:47:44.918Z,-79.03
2022-12-17T00:48:44.896Z,-79.52
2022-12-17T00:49:44.897Z,-81.9
2022-12-17T00:50:44.896Z,-83.18
2022-12-17T00:51:44.894Z,-83.96
2022-12-17T00:52:44.946Z,-84.73
2022-12-17T00:53:44.901Z,-86.65
2022-12-17T00:54:44.898Z,-87.62
2022-12-17T00:55:44.898Z,-89.25
2022-12-17T00:56:44.909Z,-91.37
2022-12-17T00:57:44.921Z,-91.79
2022-12-17T00:58:44.909Z,-93.96
2022-12-17T00:59:44.912Z,-95.17
2022-12-17T01:00:44.954Z,-96.49
2022-12-17T01:01:45.120Z,-97.51
2022-12-17T01:02:45.106Z,-98.88
2022-12-17T01:03:44.908Z,-99.91
2022-12-17T01:04:44.931Z,-101.95
2022-12-17T01:05:44.913Z,-103.88
2022-12-17T01:06:44.918Z,-105.98
2022-12-17T01:07:44.947Z,-106.75
2022-12-17T01:08:44.949Z,-109.02
2022-12-17T01:09:44.918Z,-111.49
2022-12-17T01:10:44.927Z,-113.54
2022-12-17T01:11:44.924Z,-113.99
2022-12-17T01:12:44.947Z,-115.28
2022-12-17T01:13:44.931Z,-117.72
2022-12-17T01:14:44.934Z,-119.25
2022-12-17T01:15:44.937Z,-121.2
2022-12-17T01:16:44.978Z,-122.81
2022-12-17T01:17:44.957Z,-123.83
2022-12-17T01:18:44.935Z,-125.19
2022-12-17T01:19:44.937Z,-127.3
2022-12-17T01:20:44.933Z,-129.59
2022-12-17T01:21:44.949Z,-132.06
2022-12-17T01:22:44.969Z,-134.95
2022-12-17T01:23:44.939Z,-136.27
2022-12-17T01:24:44.971Z,-138.43
2022-12-17T01:25:44.947Z,-141.4
2022-12-17T01:26:44.949Z,-143.25
2022-12-17T01:27:44.968Z,-147.6
2022-12-17T01:28:44.954Z,-150.27
2022-12-17T01:29:44.960Z,-151.55
2022-12-17T01:30:44.956Z,-154.44
2022-12-17T01:31:45.027Z,-157.94
2022-12-17T01:32:44.986Z,-159.79
2022-12-17T01:33:44.962Z,-161.95
2022-12-17T01:34:44.966Z,-163.85
2022-12-17T01:35:44.964Z,-165.51
2022-12-17T01:36:44.965Z,-167.92
2022-12-17T01:37:44.985Z,-169.15
2022-12-17T01:38:44.972Z,-172.76
2022-12-17T01:39:44.976Z,-175.44
2022-12-17T01:40:45.013Z,-177.35
2022-12-17T01:41:44.975Z,-180.61
2022-12-17T01:42:44.995Z,-182.1
2022-12-17T01:43:44.977Z,-186.31
2022-12-17T01:44:44.982Z,-188.73
2022-12-17T01:45:45.061Z,-192.29
2022-12-17T01:46:44.981Z,-194.69
2022-12-17T01:47:45.002Z,-197.27
2022-12-17T01:48:44.982Z,-200.46
2022-12-17T01:49:44.984Z,-202.91
2022-12-17T01:50:44.981Z,-205.96
2022-12-17T01:51:44.982Z,-209.05
2022-12-17T01:52:45.008Z,-212.06
2022-12-17T01:53:45.000Z,-215.08
2022-12-17T01:54:44.988Z,-217.87
2022-12-17T01:55:45.004Z,-218.96
2022-12-17T01:56:45.024Z,-221.99
2022-12-17T01:57:45.017Z,-223.67
2022-12-17T01:58:44.996Z,-226.46
2022-12-17T01:59:45.032Z,-228.58
2022-12-17T02:00:45.033Z,-230.55
2022-12-17T02:01:45.176Z,-233.93
2022-12-17T02:02:45.190Z,-235.78
2022-12-17T02:03:45.040Z,-237.45
2022-12-17T02:04:45.025Z,-240.73
2022-12-17T02:05:47.827Z,-242.89
2022-12-17T02:06:45.007Z,-245.15
2022-12-17T02:07:45.089Z,-247.88
2022-12-17T02:08:45.012Z,-250.32
2022-12-17T02:09:45.010Z,-252.77
2022-12-17T02:10:45.010Z,-254.58
2022-12-17T02:11:45.021Z,-255.6
2022-12-17T02:12:45.068Z,-257.21
2022-12-17T02:13:45.017Z,-258.64
2022-12-17T02:14:45.019Z,-259.75
2022-12-17T02:15:45.025Z,-262
2022-12-17T02:16:47.890Z,-263.98
2022-12-17T02:17:45.050Z,-266.15
2022-12-17T02:18:45.034Z,-269.04
2022-12-17T02:19:45.036Z,-271.19
2022-12-17T02:20:45.033Z,-274.29
2022-12-17T02:21:45.030Z,-277.39
2022-12-17T02:22:45.064Z,-279.55
2022-12-17T02:23:45.032Z,-282.94
2022-12-17T02:24:45.032Z,-284.88
2022-12-17T02:25:45.038Z,-287.27
2022-12-17T02:26:45.043Z,-289.86
2022-12-17T02:27:46.760Z,-292.94
2022-12-17T02:28:45.062Z,-295.78
2022-12-17T02:29:45.045Z,-298.11
2022-12-17T02:30:45.046Z,-301.33
2022-12-17T02:31:45.186Z,-303.25
2022-12-17T02:32:45.044Z,-306.54
2022-12-17T02:33:45.046Z,-308.55
2022-12-17T02:34:45.054Z,-311.67
2022-12-17T02:35:45.052Z,-312.78
2022-12-17T02:36:45.058Z,-314.24
2022-12-17T02:37:45.054Z,-315.69
2022-12-17T02:38:48.174Z,-317.02
2022-12-17T02:39:45.064Z,-319.37
2022-12-17T02:40:45.073Z,-321.88
2022-12-17T02:41:45.066Z,-323.06
2022-12-17T02:42:45.065Z,-323.79
2022-12-17T02:43:45.061Z,-325.89
2022-12-17T02:44:45.089Z,-326.98
2022-12-17T02:45:45.147Z,-329.26
2022-12-17T02:46:45.066Z,-332.26
2022-12-17T02:47:45.086Z,-335.48
2022-12-17T02:48:45.075Z,-337.38
2022-12-17T02:49:47.952Z,-341.2
2022-12-17T02:50:45.080Z,-342.01
2022-12-17T02:51:45.078Z,-344.07
2022-12-17T02:52:45.081Z,-346.88
2022-12-17T02:53:45.081Z,-349.45
2022-12-17T02:54:45.083Z,-349.95
2022-12-17T02:55:45.084Z,-351.93
2022-12-17T02:56:45.080Z,-355.14
2022-12-17T02:57:47.455Z,-356.86
2022-12-17T02:58:45.089Z,-360.27
2022-12-17T02:59:45.093Z,-363.46
2022-12-17T03:00:45.146Z,-367.41
2022-12-17T03:01:45.309Z,-371.49
2022-12-17T03:02:45.240Z,-375.76
2022-12-17T03:03:50.047Z,-380.86
2022-12-17T03:04:45.098Z,-387.8
2022-12-17T03:05:45.855Z,-393.88
2022-12-17T03:06:45.102Z,-398.7
2022-12-17T03:07:45.097Z,-404.32
2022-12-17T03:08:45.108Z,-407.2
2022-12-17T03:09:45.101Z,-411.53
2022-12-17T03:10:45.108Z,-417.42
2022-12-17T03:11:45.106Z,-421.43
2022-12-17T03:12:45.110Z,-424.1
2022-12-17T03:13:45.108Z,-426.08
2022-12-17T03:14:45.120Z,-428.38
2022-12-17T03:15:45.119Z,-429.84
2022-12-17T03:16:45.193Z,-432.49
2022-12-17T03:17:45.119Z,-432.61
2022-12-17T03:18:45.117Z,-433.82
2022-12-17T03:19:45.116Z,-436.06
2022-12-17T03:20:45.125Z,-439.03
2022-12-17T03:21:47.969Z,-440.76
2022-12-17T03:22:45.126Z,-442.55
2022-12-17T03:23:45.123Z,-446.06
2022-12-17T03:24:45.131Z,-446.39
2022-12-17T03:25:45.130Z,-449.04
2022-12-17T03:26:45.133Z,-448.66
2022-12-17T03:27:45.128Z,-448.38
2022-12-17T03:28:45.136Z,-450.07
2022-12-17T03:29:45.129Z,-451.47
2022-12-17T03:30:48.814Z,-454.77
2022-12-17T03:31:45.194Z,-455.56
2022-12-17T03:32:45.169Z,-455.8
2022-12-17T03:33:45.142Z,-460.22
2022-12-17T03:34:45.147Z,-461.12
2022-12-17T03:35:45.139Z,-463.07
2022-12-17T03:36:45.141Z,-467.34
2022-12-17T03:37:45.142Z,-468.38
2022-12-17T03:38:45.169Z,-472.24
2022-12-17T03:39:45.148Z,-474.9
2022-12-17T03:40:45.160Z,-477.59
2022-12-17T03:41:45.176Z,-480.25
2022-12-17T03:42:45.156Z,-485.77
2022-12-17T03:43:45.178Z,-492.1
2022-12-17T03:44:45.158Z,-497.78
2022-12-17T03:45:45.223Z,-503.95
2022-12-17T03:46:45.163Z,-508.95
2022-12-17T03:47:45.165Z,-516.2
2022-12-17T03:48:45.235Z,-521.03
2022-12-17T03:49:45.159Z,-526.94
2022-12-17T03:50:45.160Z,-530.52
2022-12-17T03:51:45.166Z,-534.07
2022-12-17T03:52:45.177Z,-539.86
2022-12-17T03:53:45.192Z,-542.3
2022-12-17T03:54:45.170Z,-547.13
2022-12-17T03:55:45.176Z,-548.33
2022-12-17T03:56:45.173Z,-549.78
2022-12-17T03:57:45.181Z,-550.02
2022-12-17T03:58:45.203Z,-553.03
2022-12-17T03:59:45.176Z,-554
2022-12-17T04:00:45.187Z,-552.1
2022-12-17T04:01:45.309Z,-552.71
2022-12-17T04:02:45.387Z,-551.49
2022-12-17T04:03:45.262Z,-552.01
2022-12-17T04:04:45.212Z,-552.32
2022-12-17T04:05:45.189Z,-554.12
2022-12-17T04:06:45.196Z,-557.12
2022-12-17T04:07:45.186Z,-556.62
2022-12-17T04:08:45.221Z,-560.04
2022-12-17T04:09:45.190Z,-560.15
2022-12-17T04:10:45.203Z,-561.76
2022-12-17T04:11:45.200Z,-564.76
2022-12-17T04:12:45.193Z,-563.45
2022-12-17T04:13:45.469Z,-566.21
2022-12-17T04:14:45.207Z,-567.08
2022-12-17T04:15:45.231Z,-569.06
2022-12-17T04:16:45.206Z,-570.92
2022-12-17T04:17:45.208Z,-575.18
2022-12-17T04:18:45.236Z,-579.34
2022-12-17T04:19:45.210Z,-585.08
2022-12-17T04:20:45.238Z,-590.43
2022-12-17T04:21:45.214Z,-595.33
2022-12-17T04:22:45.217Z,-600.44
2022-12-17T04:23:45.253Z,-605.28
2022-12-17T04:24:45.223Z,-608.92
2022-12-17T04:25:45.221Z,-613.45
2022-12-17T04:26:45.215Z,-616.84
2022-12-17T04:27:45.234Z,-618.23
2022-12-17T04:28:45.241Z,-622.88
2022-12-17T04:29:45.219Z,-627.16
2022-12-17T04:30:45.278Z,-630.48
2022-12-17T04:31:45.234Z,-633.58
2022-12-17T04:32:48.235Z,-637.48
2022-12-17T04:33:45.248Z,-642.48
2022-12-17T04:34:45.228Z,-644.28
2022-12-17T04:35:45.233Z,-645.81
2022-12-17T04:36:45.385Z,-646.72
2022-12-17T04:37:45.241Z,-647.62
2022-12-17T04:38:45.265Z,-648.8
2022-12-17T04:39:45.236Z,-652.5
2022-12-17T04:40:45.238Z,-657.15
2022-12-17T04:41:45.245Z,-661.19
2022-12-17T04:42:45.248Z,-665.78
2022-12-17T04:43:46.822Z,-669.8
2022-12-17T04:44:45.241Z,-672.24
2022-12-17T04:45:45.243Z,-677.18
2022-12-17T04:46:45.355Z,-681.79
2022-12-17T04:47:45.246Z,-686.39
2022-12-17T04:48:45.258Z,-687.23
2022-12-17T04:49:45.260Z,-690.96
2022-12-17T04:50:45.251Z,-692.2
2022-12-17T04:51:45.261Z,-695.58
2022-12-17T04:52:45.292Z,-697.14
2022-12-17T04:53:45.264Z,-700.12
2022-12-17T04:54:48.105Z,-701.75
2022-12-17T04:55:45.264Z,-703.63
2022-12-17T04:56:45.271Z,-705.75
2022-12-17T04:57:45.272Z,-709.38
2022-12-17T04:58:45.267Z,-714.43
2022-12-17T04:59:45.268Z,-718.14
2022-12-17T05:00:45.268Z,-723.31
2022-12-17T05:01:45.391Z,-726.23
2022-12-17T05:02:45.465Z,-727.63
2022-12-17T05:03:45.372Z,-729.31
2022-12-17T05:04:45.281Z,-730.19
2022-12-17T05:05:48.345Z,-731.38
2022-12-17T05:06:45.282Z,-732.05
2022-12-17T05:07:45.286Z,-732.36
2022-12-17T05:08:45.316Z,-735.2
2022-12-17T05:09:45.289Z,-735.5
2022-12-17T05:10:45.281Z,-736.73
2022-12-17T05:11:45.286Z,-736.01
2022-12-17T05:12:45.281Z,-736.93
2022-12-17T05:13:45.297Z,-738.2
2022-12-17T05:14:45.294Z,-739.76
2022-12-17T05:15:49.854Z,-743.18
2022-12-17T05:16:48.059Z,-745.37
2022-12-17T05:17:45.297Z,-749.93
2022-12-17T05:18:45.293Z,-751.86
2022-12-17T05:19:45.293Z,-753.63
2022-12-17T05:20:45.297Z,-755.14
2022-12-17T05:21:45.309Z,-757.74
2022-12-17T05:22:45.302Z,-757.72
2022-12-17T05:23:45.311Z,-758.37
2022-12-17T05:24:45.335Z,-761.04
2022-12-17T05:25:45.306Z,-762.95
2022-12-17T05:26:45.305Z,-764.08
2022-12-17T05:27:45.313Z,-765.7
2022-12-17T05:28:45.330Z,-769.22
2022-12-17T05:29:45.327Z,-772.01
2022-12-17T05:30:45.345Z,-774.83
2022-12-17T05:31:45.373Z,-778
2022-12-17T05:32:45.313Z,-779.51
2022-12-17T05:33:45.316Z,-779.13
2022-12-17T05:34:45.327Z,-779.11
2022-12-17T05:35:45.319Z,-779.08
2022-12-17T05:36:48.308Z,-776.29
2022-12-17T05:37:45.329Z,-773.09
2022-12-17T05:38:45.323Z,-768.95
2022-12-17T05:39:45.323Z,-766.03
2022-12-17T05:40:45.357Z,-764.83
2022-12-17T05:41:45.334Z,-764.86
2022-12-17T05:42:45.328Z,-765.36
2022-12-17T05:43:45.338Z,-768.37
2022-12-17T05:44:45.337Z,-769.24
2022-12-17T05:45:45.332Z,-769.23
2022-12-17T05:46:45.376Z,-770.57
2022-12-17T05:47:45.344Z,-770.79
2022-12-17T05:48:48.103Z,-771.14
2022-12-17T05:49:45.339Z,-770.39
2022-12-17T05:50:45.349Z,-769.14
2022-12-17T05:51:45.350Z,-767.86
2022-12-17T05:52:45.341Z,-767.24
2022-12-17T05:53:45.350Z,-765.22
2022-12-17T05:54:45.350Z,-764.11
2022-12-17T05:55:45.352Z,-764.1
2022-12-17T05:56:45.380Z,-764.04
2022-12-17T05:57:45.354Z,-765.59
2022-12-17T05:58:45.358Z,-769.05
2022-12-17T05:59:45.360Z,-771.87
2022-12-17T06:00:45.365Z,-775.31
2022-12-17T06:01:45.439Z,-776.55
2022-12-17T06:02:45.416Z,-778.36
2022-12-17T06:03:45.496Z,-779.93
2022-12-17T06:04:45.362Z,-780.28
2022-12-17T06:05:45.359Z,-781.56
2022-12-17T06:06:45.373Z,-782.78
2022-12-17T06:07:45.367Z,-785.29
2022-12-17T06:08:45.368Z,-784.92
2022-12-17T06:09:45.377Z,-785.56
2022-12-17T06:10:45.371Z,-787.73
2022-12-17T06:11:45.376Z,-790.19
2022-12-17T06:12:45.404Z,-793.04
2022-12-17T06:13:45.383Z,-794.25
2022-12-17T06:14:45.377Z,-795.9
2022-12-17T06:15:45.394Z,-797.15
2022-12-17T06:16:45.379Z,-797.85
2022-12-17T06:17:45.380Z,-797.71
2022-12-17T06:18:45.386Z,-798.39
2022-12-17T06:19:45.392Z,-799.7
2022-12-17T06:20:45.385Z,-798.03
2022-12-17T06:21:45.389Z,-798.57
2022-12-17T06:22:45.395Z,-797.71
2022-12-17T06:23:45.398Z,-798.05
2022-12-17T06:24:46.194Z,-798.35
2022-12-17T06:25:45.396Z,-797.02
2022-12-17T06:26:45.412Z,-796.68
2022-12-17T06:27:45.405Z,-799.39
2022-12-17T06:28:45.434Z,-801.55
2022-12-17T06:29:45.418Z,-804.47
2022-12-17T06:30:45.403Z,-808.32
2022-12-17T06:31:45.433Z,-808.86
2022-12-17T06:32:45.410Z,-811.06
2022-12-17T06:33:45.411Z,-812.99
2022-12-17T06:34:45.407Z,-815.68
2022-12-17T06:35:45.407Z,-819.18
2022-12-17T06:36:45.415Z,-821.94
2022-12-17T06:37:45.416Z,-825.16
2022-12-17T06:38:45.419Z,-826.06
2022-12-17T06:39:45.424Z,-828
2022-12-17T06:40:45.418Z,-828.92
2022-12-17T06:41:45.416Z,-831.19
2022-12-17T06:42:45.423Z,-833.67
2022-12-17T06:43:45.430Z,-836.88
2022-12-17T06:44:45.443Z,-840.63
2022-12-17T06:45:45.435Z,-842.9
2022-12-17T06:46:45.489Z,-842.91
2022-12-17T06:47:45.430Z,-843.47
2022-12-17T06:48:45.426Z,-845.7
2022-12-17T06:49:45.460Z,-849.91
2022-12-17T06:50:45.438Z,-851.13
2022-12-17T06:51:45.436Z,-852.91
2022-12-17T06:52:45.449Z,-853.59
2022-12-17T06:53:45.451Z,-853.24
2022-12-17T06:54:45.464Z,-853.85
2022-12-17T06:55:45.440Z,-855.41
2022-12-17T06:56:45.447Z,-857.32
2022-12-17T06:57:50.139Z,-856.94
2022-12-17T06:58:45.439Z,-858.56
2022-12-17T06:59:45.887Z,-861.39
2022-12-17T07:00:45.552Z,-863.54
2022-12-17T07:01:45.771Z,-867.36
2022-12-17T07:02:45.573Z,-870.58
2022-12-17T07:03:45.446Z,-872.35
2022-12-17T07:04:45.454Z,-875.6
2022-12-17T07:05:45.450Z,-875.79
2022-12-17T07:06:45.452Z,-876.03
2022-12-17T07:07:45.459Z,-875.68
2022-12-17T07:08:45.453Z,-874.34
2022-12-17T07:09:45.459Z,-874.33
2022-12-17T07:10:48.508Z,-874.07
2022-12-17T07:11:45.564Z,-873.67
2022-12-17T07:12:45.469Z,-873.65
2022-12-17T07:13:45.463Z,-872.44
2022-12-17T07:14:45.466Z,-873.62
2022-12-17T07:15:45.474Z,-875.5
2022-12-17T07:16:45.531Z,-875.51
2022-12-17T07:17:45.527Z,-874.55
2022-12-17T07:18:45.475Z,-872.26
2022-12-17T07:19:45.474Z,-872.23
2022-12-17T07:20:45.484Z,-870.87
2022-12-17T07:21:48.241Z,-871.84
2022-12-17T07:22:45.476Z,-873.18
2022-12-17T07:23:45.496Z,-871.16
2022-12-17T07:24:45.481Z,-871.54
2022-12-17T07:25:46.276Z,-870.79
2022-12-17T07:26:45.494Z,-870.56
2022-12-17T07:27:45.495Z,-868.93
2022-12-17T07:28:45.499Z,-867.93
2022-12-17T07:29:45.490Z,-864.69
2022-12-17T07:30:45.490Z,-861.72
2022-12-17T07:31:45.568Z,-862.13
2022-12-17T07:32:48.409Z,-862.99
2022-12-17T07:33:45.504Z,-863.65
2022-12-17T07:34:45.502Z,-863.55
2022-12-17T07:35:45.494Z,-863.28
2022-12-17T07:36:45.497Z,-864.6
2022-12-17T07:37:45.523Z,-864.39
2022-12-17T07:38:45.522Z,-861.61
2022-12-17T07:39:45.506Z,-859.35
2022-12-17T07:40:45.510Z,-856.33
2022-12-17T07:41:45.563Z,-853.11
2022-12-17T07:42:45.508Z,-849.68
2022-12-17T07:43:49.638Z,-849.03
2022-12-17T07:44:45.513Z,-846.71
2022-12-17T07:45:45.546Z,-847.32
2022-12-17T07:46:45.518Z,-847.35
2022-12-17T07:47:45.517Z,-846.77
2022-12-17T07:48:45.561Z,-843.2
2022-12-17T07:49:45.527Z,-842.27
2022-12-17T07:50:45.528Z,-841.5
2022-12-17T07:51:45.519Z,-839.71
2022-12-17T07:52:45.540Z,-836.72
2022-12-17T07:53:45.536Z,-833.56
2022-12-17T07:54:45.523Z,-829.47
2022-12-17T07:55:45.529Z,-825.29
2022-12-17T07:56:45.551Z,-821.46
2022-12-17T07:57:45.540Z,-818.57
2022-12-17T07:58:45.533Z,-816.98
2022-12-17T07:59:45.552Z,-814.04
2022-12-17T08:00:49.196Z,-810.92
2022-12-17T08:01:45.611Z,-807.42
2022-12-17T08:02:45.774Z,-801.96
2022-12-17T08:03:45.613Z,-798.51
2022-12-17T08:04:45.570Z,-794.09
2022-12-17T08:05:45.545Z,-790.86
2022-12-17T08:06:45.552Z,-786.52
2022-12-17T08:07:45.549Z,-782.78
2022-12-17T08:08:45.554Z,-778.33
2022-12-17T08:09:45.550Z,-775.23
2022-12-17T08:10:45.552Z,-769.82
2022-12-17T08:11:45.549Z,-765.03
2022-12-17T08:12:45.559Z,-762.84
2022-12-17T08:13:45.596Z,-758.11
2022-12-17T08:14:45.563Z,-754.33
2022-12-17T08:15:48.667Z,-748.94
2022-12-17T08:16:45.615Z,-745.78
2022-12-17T08:17:45.561Z,-739.36
2022-12-17T08:18:45.572Z,-734.76
2022-12-17T08:19:45.571Z,-728.02
2022-12-17T08:20:45.714Z,-725.31
2022-12-17T08:21:45.576Z,-721.23
2022-12-17T08:22:45.571Z,-717.44
2022-12-17T08:23:45.607Z,-714.3
2022-12-17T08:24:45.574Z,-710.9
2022-12-17T08:25:45.577Z,-706.78
2022-12-17T08:26:48.020Z,-702.68
2022-12-17T08:27:45.629Z,-696.83
2022-12-17T08:28:52.862Z,-693.43
2022-12-17T08:29:45.588Z,-689.41
2022-12-17T08:30:45.617Z,-682.75
2022-12-17T08:31:45.579Z,-679.45
2022-12-17T08:32:45.590Z,-675.16
2022-12-17T08:33:45.592Z,-670.16
2022-12-17T08:34:45.585Z,-664.81
2022-12-17T08:35:45.586Z,-660.18
2022-12-17T08:36:45.616Z,-655.57
2022-12-17T08:37:45.590Z,-651.86
2022-12-17T08:38:46.620Z,-646.98
2022-12-17T08:39:45.593Z,-641.09
2022-12-17T08:40:45.606Z,-635.27
2022-12-17T08:41:48.537Z,-627.47
2022-12-17T08:42:45.611Z,-620.15
2022-12-17T08:43:45.634Z,-614.71
2022-12-17T08:44:45.606Z,-607.02
2022-12-17T08:45:45.640Z,-600.91
2022-12-17T08:46:45.603Z,-595.1
2022-12-17T08:47:45.615Z,-589.98
2022-12-17T08:48:45.609Z,-584.23
2022-12-17T08:49:45.603Z,-579.96
2022-12-17T08:50:45.614Z,-577.25
2022-12-17T08:51:45.608Z,-574.24
2022-12-17T08:52:45.641Z,-569.95
2022-12-17T08:53:45.612Z,-568.46
2022-12-17T08:54:45.613Z,-565.76
2022-12-17T08:55:45.698Z,-563.38
2022-12-17T08:56:45.619Z,-559.76
2022-12-17T08:57:45.619Z,-556.09
2022-12-17T08:58:45.616Z,-551.65
2022-12-17T08:59:45.619Z,-547.89
2022-12-17T09:00:45.627Z,-544.12
2022-12-17T09:01:45.684Z,-538.7
2022-12-17T09:02:45.764Z,-534.16
2022-12-17T09:03:45.691Z,-528.76
2022-12-17T09:04:45.628Z,-524.16
2022-12-17T09:05:45.639Z,-517.87
2022-12-17T09:06:45.633Z,-513.08
2022-12-17T09:07:45.633Z,-508.02
2022-12-17T09:08:45.662Z,-505.33
2022-12-17T09:09:45.641Z,-501.41
2022-12-17T09:10:45.644Z,-498.76
2022-12-17T09:11:45.636Z,-493.86
2022-12-17T09:12:45.654Z,-489.68
2022-12-17T09:13:45.640Z,-484.27
2022-12-17T09:14:45.648Z,-480.4
2022-12-17T09:15:45.646Z,-477.38
2022-12-17T09:16:45.697Z,-471.82
2022-12-17T09:17:45.649Z,-467.7
2022-12-17T09:18:45.647Z,-463.99
2022-12-17T09:19:45.650Z,-461.65
2022-12-17T09:20:45.657Z,-460.69
2022-12-17T09:21:45.657Z,-458.04
2022-12-17T09:22:45.663Z,-454.84
2022-12-17T09:23:45.666Z,-449.86
2022-12-17T09:24:45.683Z,-445.97
2022-12-17T09:25:45.667Z,-440.99
2022-12-17T09:26:48.672Z,-433.94
2022-12-17T09:27:45.661Z,-428.32
2022-12-17T09:28:45.664Z,-424.28
2022-12-17T09:29:45.671Z,-420.45
2022-12-17T09:30:45.707Z,-417.01
2022-12-17T09:31:45.666Z,-413.81
2022-12-17T09:32:45.679Z,-411.11
2022-12-17T09:33:45.675Z,-406.71
2022-12-17T09:34:45.673Z,-404.38
2022-12-17T09:35:45.673Z,-400
2022-12-17T09:36:50.992Z,-395.43
2022-12-17T09:37:48.779Z,-389.89
2022-12-17T09:38:45.687Z,-385.24
2022-12-17T09:39:45.677Z,-381.15
2022-12-17T09:40:48.698Z,-379.07
2022-12-17T09:41:45.682Z,-378.28
2022-12-17T09:42:50.475Z,-377.9
2022-12-17T09:43:45.693Z,-375.08
2022-12-17T09:44:45.691Z,-373.33
2022-12-17T09:45:45.745Z,-369.02
2022-12-17T09:46:45.695Z,-367.91
2022-12-17T09:47:45.697Z,-363.73
2022-12-17T09:48:48.800Z,-361.25
2022-12-17T09:49:45.700Z,-357.44
2022-12-17T09:50:45.696Z,-354.24
2022-12-17T09:51:45.698Z,-351.46
2022-12-17T09:52:45.704Z,-348.23
2022-12-17T09:53:45.707Z,-344.42
2022-12-17T09:54:45.703Z,-340.83
2022-12-17T09:55:45.715Z,-338.39
2022-12-17T09:56:45.743Z,-337.07
2022-12-17T09:57:45.711Z,-335.29
2022-12-17T09:58:45.718Z,-334.42
2022-12-17T09:59:48.729Z,-331.64
2022-12-17T10:00:45.738Z,-329.17
2022-12-17T10:01:45.845Z,-326.87
2022-12-17T10:02:45.950Z,-324.25
2022-12-17T10:03:45.772Z,-321.94
2022-12-17T10:04:45.716Z,-320.55
2022-12-17T10:05:45.749Z,-317.43
2022-12-17T10:06:45.725Z,-315.44
2022-12-17T10:07:45.727Z,-312.9
2022-12-17T10:08:45.722Z,-310.39
2022-12-17T10:09:45.731Z,-307.56
2022-12-17T10:10:48.962Z,-304.71
2022-12-17T10:11:45.736Z,-300.75
2022-12-17T10:12:45.768Z,-299.68
2022-12-17T10:13:45.731Z,-295.96
2022-12-17T10:14:45.732Z,-293.69
2022-12-17T10:15:45.759Z,-290.14
2022-12-17T10:16:45.740Z,-287.41
2022-12-17T10:17:45.741Z,-283.77
2022-12-17T10:18:45.738Z,-279.81
2022-12-17T10:19:45.742Z,-276.5
2022-12-17T10:20:45.748Z,-273.33
2022-12-17T10:21:45.741Z,-270.85
2022-12-17T10:22:45.744Z,-266.04
2022-12-17T10:23:45.751Z,-264.71
2022-12-17T10:24:45.746Z,-260.35
2022-12-17T10:25:45.753Z,-257.6
2022-12-17T10:26:45.771Z,-255.24
2022-12-17T10:27:45.770Z,-251.93
2022-12-17T10:28:45.844Z,-249.74
2022-12-17T10:29:48.329Z,-246.65
2022-12-17T10:30:45.819Z,-244.37
2022-12-17T10:31:45.758Z,-242.48
2022-12-17T10:32:45.806Z,-240.29
2022-12-17T10:33:45.761Z,-237.73
2022-12-17T10:34:45.801Z,-234.14
2022-12-17T10:35:45.767Z,-231.66
2022-12-17T10:36:45.772Z,-229.46
2022-12-17T10:37:45.773Z,-226.12
2022-12-17T10:38:45.776Z,-222.5
2022-12-17T10:39:45.775Z,-219.71
2022-12-17T10:40:45.770Z,-218.36
2022-12-17T10:41:45.772Z,-215.02
2022-12-17T10:42:45.799Z,-211.14
2022-12-17T10:43:45.775Z,-206.98
2022-12-17T10:44:45.810Z,-204.74
2022-12-17T10:45:45.788Z,-203.41
2022-12-17T10:46:45.796Z,-200.61
2022-12-17T10:47:45.781Z,-199.86
2022-12-17T10:48:45.783Z,-198.44
2022-12-17T10:49:45.795Z,-195.21
2022-12-17T10:50:45.796Z,-192.12
2022-12-17T10:51:45.788Z,-190.46
2022-12-17T10:52:45.791Z,-189.42
2022-12-17T10:53:45.795Z,-186.37
2022-12-17T10:54:49.271Z,-184.76
2022-12-17T10:55:45.794Z,-183.17
2022-12-17T10:56:45.802Z,-179.62
2022-12-17T10:57:45.816Z,-175.51
2022-12-17T10:58:45.797Z,-173.33
2022-12-17T10:59:45.798Z,-170.9
2022-12-17T11:00:49.967Z,-168.13
2022-12-17T11:01:45.884Z,-166.73
2022-12-17T11:02:45.950Z,-165.17
2022-12-17T11:03:45.920Z,-161.24
2022-12-17T11:04:45.814Z,-159.42
2022-12-17T11:05:45.817Z,-156.38
2022-12-17T11:06:45.822Z,-153.93
2022-12-17T11:07:45.825Z,-151.99
2022-12-17T11:08:45.819Z,-149.54
2022-12-17T11:09:45.819Z,-146.61
2022-12-17T11:10:45.815Z,-144.73
2022-12-17T11:11:45.825Z,-143.56
2022-12-17T11:12:45.860Z,-142.27
2022-12-17T11:13:45.821Z,-141.1
2022-12-17T11:14:45.829Z,-139.49
2022-12-17T11:15:45.913Z,-138.96
2022-12-17T11:16:45.856Z,-137.07
2022-12-17T11:17:45.842Z,-135.07
2022-12-17T11:18:45.840Z,-134.94
2022-12-17T11:19:45.829Z,-133.59
2022-12-17T11:20:45.832Z,-131.18
2022-12-17T11:21:45.864Z,-130.79
2022-12-17T11:22:45.843Z,-130.12
2022-12-17T11:23:45.845Z,-129.27
2022-12-17T11:24:45.846Z,-129.4
2022-12-17T11:25:45.843Z,-129.23
2022-12-17T11:26:45.872Z,-127.62
2022-12-17T11:27:45.840Z,-126.26
2022-12-17T11:28:45.871Z,-122.78
2022-12-17T11:29:45.848Z,-122.27
2022-12-17T11:30:45.851Z,-120.98
2022-12-17T11:31:45.934Z,-118.01
2022-12-17T11:32:45.881Z,-115.77
2022-12-17T11:33:45.850Z,-115.35
2022-12-17T11:34:45.858Z,-113.72
2022-12-17T11:35:45.854Z,-112.89
2022-12-17T11:36:45.889Z,-111.3
2022-12-17T11:37:45.862Z,-110.28
2022-12-17T11:38:45.870Z,-108.99
2022-12-17T11:39:45.861Z,-106
2022-12-17T11:40:45.869Z,-101.25
2022-12-17T11:41:45.893Z,-98.91
2022-12-17T11:42:45.865Z,-95.97
2022-12-17T11:43:45.873Z,-93.8
2022-12-17T11:44:45.869Z,-90.7
2022-12-17T11:45:45.876Z,-89.11
2022-12-17T11:46:45.972Z,-87.78
2022-12-17T11:47:45.910Z,-85.29
2022-12-17T11:48:45.908Z,-83.23
2022-12-17T11:49:45.883Z,-82.97
2022-12-17T11:50:45.877Z,-80.63
2022-12-17T11:51:45.910Z,-78.73
2022-12-17T11:52:45.885Z,-76.12
2022-12-17T11:53:46.071Z,-74.31
2022-12-17T11:54:45.888Z,-71.94
2022-12-17T11:55:45.893Z,-68.97
2022-12-17T11:56:45.915Z,-66.12
2022-12-17T11:57:45.916Z,-63.45
2022-12-17T11:58:45.889Z,-61.33
2022-12-17T11:59:51.103Z,-60.34
2022-12-17T12:00:45.892Z,-58.43
2022-12-17T12:01:45.952Z,-57.68
2022-12-17T12:02:45.947Z,-55.52
2022-12-17T12:03:45.999Z,-53.36
2022-12-17T12:04:48.689Z,-50.5
2022-12-17T12:05:45.905Z,-48.23
2022-12-17T12:06:45.951Z,-46.65
2022-12-17T12:07:45.907Z,-44.03
2022-12-17T12:08:45.909Z,-41.65
2022-12-17T12:09:45.915Z,-38.73
2022-12-17T12:10:45.913Z,-35.83